sensor_id;sensor_type;location;lat;lon;timestamp;P1;durP1;ratioP1;P2;durP2;ratioP2
75459;SDS011;64039;53.060;9.342;2023-05-16T00:00:12;6.57;;;2.00;;
75459;SDS011;64039;53.060;9.342;2023-05-16T00:02:38;8.48;;;2.22;;
75459;SDS011;64039;53.060;9.342;2023-05-16T00:05:04;10.45;;;1.80;;
75459;SDS011;64039;53.060;9.342;2023-05-16T00:07:32;5.47;;;1.85;;
75459;SDS011;64039;53.060;9.342;2023-05-16T00:09:58;5.82;;;2.00;;
75459;SDS011;64039;53.060;9.342;2023-05-16T00:12:23;6.03;;;1.60;;
75459;SDS011;64039;53.060;9.342;2023-05-16T00:14:50;5.03;;;1.65;;
75459;SDS011;64039;53.060;9.342;2023-05-16T00:17:16;9.93;;;1.88;;
75459;SDS011;64039;53.060;9.342;2023-05-16T00:19:43;5.40;;;1.35;;
75459;SDS011;64039;53.060;9.342;2023-05-16T00:22:11;4.68;;;1.33;;
75459;SDS011;64039;53.060;9.342;2023-05-16T00:24:37;6.03;;;1.45;;
75459;SDS011;64039;53.060;9.342;2023-05-16T00:27:02;5.93;;;1.50;;
75459;SDS011;64039;53.060;9.342;2023-05-16T00:29:29;8.10;;;1.42;;
75459;SDS011;64039;53.060;9.342;2023-05-16T00:31:55;4.30;;;1.50;;
75459;SDS011;64039;53.060;9.342;2023-05-16T00:34:21;8.40;;;1.30;;
75459;SDS011;64039;53.060;9.342;2023-05-16T00:36:48;6.03;;;1.27;;
75459;SDS011;64039;53.060;9.342;2023-05-16T00:39:15;8.18;;;1.70;;
75459;SDS011;64039;53.060;9.342;2023-05-16T00:41:41;10.60;;;1.83;;
75459;SDS011;64039;53.060;9.342;2023-05-16T00:44:07;5.20;;;1.40;;
75459;SDS011;64039;53.060;9.342;2023-05-16T00:46:32;5.55;;;1.40;;
75459;SDS011;64039;53.060;9.342;2023-05-16T00:48:58;10.18;;;1.75;;
75459;SDS011;64039;53.060;9.342;2023-05-16T00:51:24;5.15;;;1.40;;
75459;SDS011;64039;53.060;9.342;2023-05-16T00:53:50;6.82;;;1.45;;
75459;SDS011;64039;53.060;9.342;2023-05-16T00:56:15;4.90;;;1.30;;
75459;SDS011;64039;53.060;9.342;2023-05-16T00:58:41;6.90;;;1.60;;
75459;SDS011;64039;53.060;9.342;2023-05-16T01:01:07;11.68;;;1.65;;
75459;SDS011;64039;53.060;9.342;2023-05-16T01:03:33;5.53;;;1.55;;
75459;SDS011;64039;53.060;9.342;2023-05-16T01:05:59;5.78;;;1.73;;
75459;SDS011;64039;53.060;9.342;2023-05-16T01:08:25;4.25;;;1.25;;
75459;SDS011;64039;53.060;9.342;2023-05-16T01:10:58;6.43;;;1.65;;
75459;SDS011;64039;53.060;9.342;2023-05-16T01:16:21;7.30;;;2.03;;
75459;SDS011;64039;53.060;9.342;2023-05-16T01:27:21;9.00;;;2.13;;
75459;SDS011;64039;53.060;9.342;2023-05-16T01:29:54;6.60;;;2.30;;
75459;SDS011;64039;53.060;9.342;2023-05-16T01:32:20;5.40;;;1.70;;
75459;SDS011;64039;53.060;9.342;2023-05-16T01:34:46;4.10;;;1.80;;
75459;SDS011;64039;53.060;9.342;2023-05-16T01:38:15;7.10;;;1.50;;
75459;SDS011;64039;53.060;9.342;2023-05-16T01:40:23;8.55;;;1.60;;
75459;SDS011;64039;53.060;9.342;2023-05-16T01:43:04;5.55;;;1.65;;
75459;SDS011;64039;53.060;9.342;2023-05-16T01:45:38;6.32;;;1.30;;
75459;SDS011;64039;53.060;9.342;2023-05-16T01:48:21;5.90;;;1.45;;
75459;SDS011;64039;53.060;9.342;2023-05-16T01:50:53;3.67;;;1.17;;
75459;SDS011;64039;53.060;9.342;2023-05-16T01:53:27;5.95;;;1.40;;
75459;SDS011;64039;53.060;9.342;2023-05-16T01:55:58;8.38;;;1.73;;
75459;SDS011;64039;53.060;9.342;2023-05-16T01:58:27;5.32;;;1.10;;
75459;SDS011;64039;53.060;9.342;2023-05-16T02:01:00;7.88;;;1.33;;
75459;SDS011;64039;53.060;9.342;2023-05-16T02:03:28;8.38;;;1.38;;
75459;SDS011;64039;53.060;9.342;2023-05-16T02:05:54;6.07;;;1.17;;
75459;SDS011;64039;53.060;9.342;2023-05-16T02:08:20;5.10;;;1.40;;
75459;SDS011;64039;53.060;9.342;2023-05-16T02:10:46;8.65;;;1.60;;
75459;SDS011;64039;53.060;9.342;2023-05-16T02:13:11;5.15;;;1.50;;
75459;SDS011;64039;53.060;9.342;2023-05-16T02:15:36;10.00;;;1.65;;
75459;SDS011;64039;53.060;9.342;2023-05-16T02:18:02;5.47;;;1.20;;
75459;SDS011;64039;53.060;9.342;2023-05-16T02:20:28;8.25;;;1.30;;
75459;SDS011;64039;53.060;9.342;2023-05-16T02:22:53;6.22;;;1.30;;
75459;SDS011;64039;53.060;9.342;2023-05-16T02:25:18;4.38;;;1.08;;
75459;SDS011;64039;53.060;9.342;2023-05-16T02:27:44;8.55;;;1.70;;
75459;SDS011;64039;53.060;9.342;2023-05-16T02:30:10;7.00;;;1.50;;
75459;SDS011;64039;53.060;9.342;2023-05-16T02:32:37;9.75;;;1.55;;
75459;SDS011;64039;53.060;9.342;2023-05-16T02:35:05;10.15;;;1.95;;
75459;SDS011;64039;53.060;9.342;2023-05-16T02:37:32;7.68;;;1.83;;
75459;SDS011;64039;53.060;9.342;2023-05-16T02:39:57;9.35;;;1.98;;
75459;SDS011;64039;53.060;9.342;2023-05-16T02:42:24;7.97;;;1.42;;
75459;SDS011;64039;53.060;9.342;2023-05-16T02:44:51;9.95;;;1.67;;
75459;SDS011;64039;53.060;9.342;2023-05-16T02:47:17;9.55;;;1.70;;
75459;SDS011;64039;53.060;9.342;2023-05-16T02:49:42;10.38;;;1.70;;
75459;SDS011;64039;53.060;9.342;2023-05-16T02:52:08;7.72;;;2.75;;
75459;SDS011;64039;53.060;9.342;2023-05-16T02:54:34;8.20;;;1.65;;
75459;SDS011;64039;53.060;9.342;2023-05-16T02:57:00;7.88;;;2.05;;
75459;SDS011;64039;53.060;9.342;2023-05-16T02:59:25;8.10;;;1.33;;
75459;SDS011;64039;53.060;9.342;2023-05-16T03:01:51;13.27;;;1.95;;
75459;SDS011;64039;53.060;9.342;2023-05-16T03:04:16;7.72;;;1.92;;
75459;SDS011;64039;53.060;9.342;2023-05-16T03:06:42;10.55;;;1.70;;
75459;SDS011;64039;53.060;9.342;2023-05-16T03:09:08;9.65;;;1.88;;
75459;SDS011;64039;53.060;9.342;2023-05-16T03:11:33;8.98;;;1.70;;
75459;SDS011;64039;53.060;9.342;2023-05-16T03:13:59;12.98;;;2.17;;
75459;SDS011;64039;53.060;9.342;2023-05-16T03:16:24;9.20;;;1.83;;
75459;SDS011;64039;53.060;9.342;2023-05-16T03:18:50;12.45;;;2.13;;
75459;SDS011;64039;53.060;9.342;2023-05-16T03:21:15;8.95;;;1.95;;
75459;SDS011;64039;53.060;9.342;2023-05-16T03:23:41;13.95;;;2.00;;
75459;SDS011;64039;53.060;9.342;2023-05-16T03:26:07;13.93;;;2.85;;
75459;SDS011;64039;53.060;9.342;2023-05-16T03:28:32;12.27;;;2.28;;
75459;SDS011;64039;53.060;9.342;2023-05-16T03:30:58;10.27;;;1.92;;
75459;SDS011;64039;53.060;9.342;2023-05-16T03:33:23;12.68;;;2.13;;
75459;SDS011;64039;53.060;9.342;2023-05-16T03:35:48;10.48;;;2.53;;
75459;SDS011;64039;53.060;9.342;2023-05-16T03:38:14;15.18;;;2.30;;
75459;SDS011;64039;53.060;9.342;2023-05-16T03:40:41;11.10;;;2.10;;
75459;SDS011;64039;53.060;9.342;2023-05-16T03:43:07;22.25;;;2.50;;
75459;SDS011;64039;53.060;9.342;2023-05-16T03:45:33;12.50;;;1.85;;
75459;SDS011;64039;53.060;9.342;2023-05-16T03:47:58;17.83;;;2.55;;
75459;SDS011;64039;53.060;9.342;2023-05-16T03:50:24;12.27;;;2.42;;
75459;SDS011;64039;53.060;9.342;2023-05-16T03:52:49;12.02;;;2.35;;
75459;SDS011;64039;53.060;9.342;2023-05-16T03:55:16;11.20;;;2.40;;
75459;SDS011;64039;53.060;9.342;2023-05-16T03:57:42;14.77;;;2.35;;
75459;SDS011;64039;53.060;9.342;2023-05-16T04:00:08;17.08;;;2.30;;
75459;SDS011;64039;53.060;9.342;2023-05-16T04:02:35;9.57;;;1.80;;
75459;SDS011;64039;53.060;9.342;2023-05-16T04:05:00;12.52;;;2.05;;
75459;SDS011;64039;53.060;9.342;2023-05-16T04:07:26;15.38;;;2.13;;
75459;SDS011;64039;53.060;9.342;2023-05-16T04:09:52;11.32;;;2.00;;
75459;SDS011;64039;53.060;9.342;2023-05-16T04:12:18;16.17;;;2.25;;
75459;SDS011;64039;53.060;9.342;2023-05-16T04:14:44;10.88;;;1.90;;
75459;SDS011;64039;53.060;9.342;2023-05-16T04:17:09;14.90;;;1.88;;
75459;SDS011;64039;53.060;9.342;2023-05-16T04:19:36;13.73;;;1.98;;
75459;SDS011;64039;53.060;9.342;2023-05-16T04:22:01;16.10;;;1.60;;
75459;SDS011;64039;53.060;9.342;2023-05-16T04:24:27;14.93;;;2.35;;
75459;SDS011;64039;53.060;9.342;2023-05-16T04:26:53;13.68;;;1.65;;
75459;SDS011;64039;53.060;9.342;2023-05-16T04:29:19;11.80;;;1.63;;
75459;SDS011;64039;53.060;9.342;2023-05-16T04:31:47;14.07;;;1.80;;
75459;SDS011;64039;53.060;9.342;2023-05-16T04:34:12;13.05;;;1.55;;
75459;SDS011;64039;53.060;9.342;2023-05-16T04:36:40;13.80;;;2.05;;
75459;SDS011;64039;53.060;9.342;2023-05-16T04:39:06;12.50;;;2.17;;
75459;SDS011;64039;53.060;9.342;2023-05-16T04:41:32;10.02;;;1.77;;
75459;SDS011;64039;53.060;9.342;2023-05-16T04:43:59;12.90;;;2.13;;
75459;SDS011;64039;53.060;9.342;2023-05-16T04:46:29;14.02;;;2.10;;
75459;SDS011;64039;53.060;9.342;2023-05-16T04:48:55;17.48;;;3.33;;
75459;SDS011;64039;53.060;9.342;2023-05-16T04:51:20;13.85;;;1.98;;
75459;SDS011;64039;53.060;9.342;2023-05-16T04:53:46;12.60;;;2.47;;
75459;SDS011;64039;53.060;9.342;2023-05-16T04:56:11;13.65;;;1.73;;
75459;SDS011;64039;53.060;9.342;2023-05-16T04:58:37;12.05;;;1.80;;
75459;SDS011;64039;53.060;9.342;2023-05-16T05:01:03;14.15;;;2.70;;
75459;SDS011;64039;53.060;9.342;2023-05-16T05:03:29;9.32;;;1.80;;
75459;SDS011;64039;53.060;9.342;2023-05-16T05:05:54;11.07;;;1.73;;
75459;SDS011;64039;53.060;9.342;2023-05-16T05:08:20;9.13;;;1.92;;
75459;SDS011;64039;53.060;9.342;2023-05-16T05:10:46;9.57;;;1.77;;
75459;SDS011;64039;53.060;9.342;2023-05-16T05:13:11;8.63;;;1.83;;
75459;SDS011;64039;53.060;9.342;2023-05-16T05:15:37;8.90;;;1.45;;
75459;SDS011;64039;53.060;9.342;2023-05-16T05:18:02;15.10;;;2.40;;
75459;SDS011;64039;53.060;9.342;2023-05-16T05:20:28;11.35;;;1.70;;
75459;SDS011;64039;53.060;9.342;2023-05-16T05:22:53;9.20;;;1.50;;
75459;SDS011;64039;53.060;9.342;2023-05-16T05:25:19;13.40;;;1.70;;
75459;SDS011;64039;53.060;9.342;2023-05-16T05:27:44;14.15;;;1.83;;
75459;SDS011;64039;53.060;9.342;2023-05-16T05:30:10;13.27;;;1.80;;
75459;SDS011;64039;53.060;9.342;2023-05-16T05:32:36;15.70;;;1.75;;
75459;SDS011;64039;53.060;9.342;2023-05-16T05:35:01;7.90;;;1.48;;
75459;SDS011;64039;53.060;9.342;2023-05-16T05:37:28;14.05;;;1.88;;
75459;SDS011;64039;53.060;9.342;2023-05-16T05:39:54;12.13;;;2.00;;
75459;SDS011;64039;53.060;9.342;2023-05-16T05:42:20;10.82;;;1.88;;
75459;SDS011;64039;53.060;9.342;2023-05-16T05:44:45;15.52;;;1.77;;
75459;SDS011;64039;53.060;9.342;2023-05-16T05:47:11;17.35;;;2.28;;
75459;SDS011;64039;53.060;9.342;2023-05-16T05:49:36;14.73;;;1.95;;
75459;SDS011;64039;53.060;9.342;2023-05-16T05:52:02;7.68;;;1.48;;
75459;SDS011;64039;53.060;9.342;2023-05-16T05:54:28;13.68;;;1.95;;
75459;SDS011;64039;53.060;9.342;2023-05-16T05:56:55;10.23;;;1.40;;
75459;SDS011;64039;53.060;9.342;2023-05-16T05:59:21;12.80;;;1.80;;
75459;SDS011;64039;53.060;9.342;2023-05-16T06:01:46;12.35;;;2.40;;
75459;SDS011;64039;53.060;9.342;2023-05-16T06:04:16;13.48;;;1.77;;
75459;SDS011;64039;53.060;9.342;2023-05-16T06:06:45;13.77;;;1.75;;
75459;SDS011;64039;53.060;9.342;2023-05-16T06:09:10;7.80;;;1.33;;
75459;SDS011;64039;53.060;9.342;2023-05-16T06:11:37;12.25;;;1.60;;
75459;SDS011;64039;53.060;9.342;2023-05-16T06:14:03;10.88;;;1.55;;
75459;SDS011;64039;53.060;9.342;2023-05-16T06:16:29;11.15;;;1.83;;
75459;SDS011;64039;53.060;9.342;2023-05-16T06:18:55;14.23;;;2.10;;
75459;SDS011;64039;53.060;9.342;2023-05-16T06:21:20;13.15;;;1.90;;
75459;SDS011;64039;53.060;9.342;2023-05-16T06:23:46;7.97;;;1.40;;
75459;SDS011;64039;53.060;9.342;2023-05-16T06:26:11;16.10;;;2.42;;
75459;SDS011;64039;53.060;9.342;2023-05-16T06:28:37;8.15;;;1.80;;
75459;SDS011;64039;53.060;9.342;2023-05-16T06:31:02;6.30;;;1.30;;
75459;SDS011;64039;53.060;9.342;2023-05-16T06:33:28;9.68;;;1.50;;
75459;SDS011;64039;53.060;9.342;2023-05-16T06:35:53;11.32;;;1.40;;
75459;SDS011;64039;53.060;9.342;2023-05-16T06:38:19;8.80;;;1.67;;
75459;SDS011;64039;53.060;9.342;2023-05-16T06:40:44;11.40;;;1.42;;
75459;SDS011;64039;53.060;9.342;2023-05-16T06:43:10;8.88;;;1.60;;
75459;SDS011;64039;53.060;9.342;2023-05-16T06:45:36;11.55;;;1.20;;
75459;SDS011;64039;53.060;9.342;2023-05-16T06:48:01;8.77;;;1.73;;
75459;SDS011;64039;53.060;9.342;2023-05-16T06:50:27;10.73;;;1.60;;
75459;SDS011;64039;53.060;9.342;2023-05-16T06:52:53;11.48;;;1.67;;
75459;SDS011;64039;53.060;9.342;2023-05-16T06:55:18;8.15;;;1.58;;
75459;SDS011;64039;53.060;9.342;2023-05-16T06:57:43;7.55;;;1.60;;
75459;SDS011;64039;53.060;9.342;2023-05-16T07:00:09;9.50;;;1.38;;
75459;SDS011;64039;53.060;9.342;2023-05-16T07:02:35;12.25;;;1.60;;
75459;SDS011;64039;53.060;9.342;2023-05-16T07:05:01;13.60;;;1.70;;
75459;SDS011;64039;53.060;9.342;2023-05-16T07:07:26;9.07;;;1.33;;
75459;SDS011;64039;53.060;9.342;2023-05-16T07:09:52;10.02;;;1.38;;
75459;SDS011;64039;53.060;9.342;2023-05-16T07:12:18;12.88;;;1.73;;
75459;SDS011;64039;53.060;9.342;2023-05-16T07:14:43;8.07;;;1.25;;
75459;SDS011;64039;53.060;9.342;2023-05-16T07:17:09;6.78;;;1.25;;
75459;SDS011;64039;53.060;9.342;2023-05-16T07:19:35;6.50;;;1.52;;
75459;SDS011;64039;53.060;9.342;2023-05-16T07:22:01;7.72;;;1.48;;
75459;SDS011;64039;53.060;9.342;2023-05-16T07:24:26;10.38;;;1.40;;
75459;SDS011;64039;53.060;9.342;2023-05-16T07:26:52;7.45;;;1.15;;
75459;SDS011;64039;53.060;9.342;2023-05-16T07:29:17;10.10;;;1.92;;
75459;SDS011;64039;53.060;9.342;2023-05-16T07:31:43;7.68;;;1.63;;
75459;SDS011;64039;53.060;9.342;2023-05-16T07:34:08;8.48;;;1.30;;
75459;SDS011;64039;53.060;9.342;2023-05-16T07:36:35;8.60;;;1.50;;
75459;SDS011;64039;53.060;9.342;2023-05-16T07:39:00;8.52;;;1.00;;
75459;SDS011;64039;53.060;9.342;2023-05-16T07:41:26;5.72;;;1.10;;
75459;SDS011;64039;53.060;9.342;2023-05-16T07:43:51;6.53;;;1.27;;
75459;SDS011;64039;53.060;9.342;2023-05-16T07:46:17;9.77;;;1.40;;
75459;SDS011;64039;53.060;9.342;2023-05-16T07:48:42;7.90;;;1.20;;
75459;SDS011;64039;53.060;9.342;2023-05-16T07:51:07;5.28;;;1.13;;
75459;SDS011;64039;53.060;9.342;2023-05-16T07:53:33;9.05;;;1.42;;
75459;SDS011;64039;53.060;9.342;2023-05-16T07:55:58;7.53;;;1.33;;
75459;SDS011;64039;53.060;9.342;2023-05-16T07:58:24;5.10;;;1.05;;
75459;SDS011;64039;53.060;9.342;2023-05-16T08:00:49;5.75;;;0.90;;
75459;SDS011;64039;53.060;9.342;2023-05-16T08:03:15;6.82;;;1.40;;
75459;SDS011;64039;53.060;9.342;2023-05-16T08:05:40;5.15;;;1.08;;
75459;SDS011;64039;53.060;9.342;2023-05-16T08:08:06;7.90;;;1.20;;
75459;SDS011;64039;53.060;9.342;2023-05-16T08:10:32;4.25;;;0.90;;
75459;SDS011;64039;53.060;9.342;2023-05-16T08:12:57;5.90;;;1.13;;
75459;SDS011;64039;53.060;9.342;2023-05-16T08:15:23;6.40;;;1.00;;
75459;SDS011;64039;53.060;9.342;2023-05-16T08:17:50;8.10;;;1.63;;
75459;SDS011;64039;53.060;9.342;2023-05-16T08:20:16;6.43;;;1.20;;
75459;SDS011;64039;53.060;9.342;2023-05-16T08:22:41;7.70;;;1.17;;
75459;SDS011;64039;53.060;9.342;2023-05-16T08:25:07;9.40;;;1.20;;
75459;SDS011;64039;53.060;9.342;2023-05-16T08:27:33;11.05;;;1.75;;
75459;SDS011;64039;53.060;9.342;2023-05-16T08:29:58;4.93;;;0.95;;
75459;SDS011;64039;53.060;9.342;2023-05-16T08:32:24;8.65;;;1.50;;
75459;SDS011;64039;53.060;9.342;2023-05-16T08:34:49;4.18;;;1.02;;
75459;SDS011;64039;53.060;9.342;2023-05-16T08:37:15;5.63;;;1.48;;
75459;SDS011;64039;53.060;9.342;2023-05-16T08:39:40;7.72;;;1.40;;
75459;SDS011;64039;53.060;9.342;2023-05-16T08:42:06;9.45;;;1.30;;
75459;SDS011;64039;53.060;9.342;2023-05-16T08:44:32;8.20;;;1.10;;
75459;SDS011;64039;53.060;9.342;2023-05-16T08:46:59;5.43;;;0.93;;
75459;SDS011;64039;53.060;9.342;2023-05-16T08:49:35;5.47;;;1.10;;
75459;SDS011;64039;53.060;9.342;2023-05-16T08:52:03;6.38;;;1.00;;
75459;SDS011;64039;53.060;9.342;2023-05-16T08:54:32;5.70;;;0.90;;
75459;SDS011;64039;53.060;9.342;2023-05-16T08:56:58;4.05;;;0.98;;
75459;SDS011;64039;53.060;9.342;2023-05-16T08:59:25;5.25;;;1.10;;
75459;SDS011;64039;53.060;9.342;2023-05-16T09:01:51;4.85;;;0.85;;
75459;SDS011;64039;53.060;9.342;2023-05-16T09:04:17;7.93;;;1.10;;
75459;SDS011;64039;53.060;9.342;2023-05-16T09:06:43;8.63;;;1.30;;
75459;SDS011;64039;53.060;9.342;2023-05-16T09:09:09;4.47;;;1.27;;
75459;SDS011;64039;53.060;9.342;2023-05-16T09:11:37;7.80;;;1.55;;
75459;SDS011;64039;53.060;9.342;2023-05-16T09:14:03;8.00;;;1.08;;
75459;SDS011;64039;53.060;9.342;2023-05-16T09:16:29;5.35;;;1.17;;
75459;SDS011;64039;53.060;9.342;2023-05-16T09:18:56;5.78;;;1.40;;
75459;SDS011;64039;53.060;9.342;2023-05-16T09:21:32;6.43;;;1.25;;
75459;SDS011;64039;53.060;9.342;2023-05-16T09:24:08;7.07;;;1.25;;
75459;SDS011;64039;53.060;9.342;2023-05-16T09:26:35;7.85;;;1.10;;
75459;SDS011;64039;53.060;9.342;2023-05-16T09:29:09;5.25;;;1.05;;
75459;SDS011;64039;53.060;9.342;2023-05-16T09:31:37;2.45;;;0.60;;
75459;SDS011;64039;53.060;9.342;2023-05-16T09:34:07;4.50;;;0.80;;
75459;SDS011;64039;53.060;9.342;2023-05-16T09:36:35;7.97;;;1.05;;
75459;SDS011;64039;53.060;9.342;2023-05-16T09:39:00;4.40;;;0.95;;
75459;SDS011;64039;53.060;9.342;2023-05-16T09:41:26;4.10;;;0.90;;
75459;SDS011;64039;53.060;9.342;2023-05-16T09:43:52;4.75;;;0.90;;
75459;SDS011;64039;53.060;9.342;2023-05-16T09:46:19;8.60;;;0.98;;
75459;SDS011;64039;53.060;9.342;2023-05-16T09:48:50;8.93;;;1.07;;
75459;SDS011;64039;53.060;9.342;2023-05-16T09:51:16;4.72;;;1.00;;
75459;SDS011;64039;53.060;9.342;2023-05-16T09:53:46;5.47;;;1.05;;
75459;SDS011;64039;53.060;9.342;2023-05-16T09:56:12;3.90;;;0.90;;
75459;SDS011;64039;53.060;9.342;2023-05-16T09:58:40;5.05;;;1.23;;
75459;SDS011;64039;53.060;9.342;2023-05-16T10:01:07;5.80;;;1.17;;
75459;SDS011;64039;53.060;9.342;2023-05-16T10:03:34;8.35;;;1.30;;
75459;SDS011;64039;53.060;9.342;2023-05-16T10:06:04;7.50;;;1.10;;
75459;SDS011;64039;53.060;9.342;2023-05-16T10:08:32;9.70;;;1.30;;
75459;SDS011;64039;53.060;9.342;2023-05-16T10:11:00;8.60;;;1.13;;
75459;SDS011;64039;53.060;9.342;2023-05-16T10:13:27;6.80;;;1.25;;
75459;SDS011;64039;53.060;9.342;2023-05-16T10:15:55;4.53;;;1.30;;
75459;SDS011;64039;53.060;9.342;2023-05-16T10:18:22;5.43;;;1.00;;
75459;SDS011;64039;53.060;9.342;2023-05-16T10:20:52;5.65;;;1.15;;
75459;SDS011;64039;53.060;9.342;2023-05-16T10:23:19;10.98;;;1.58;;
75459;SDS011;64039;53.060;9.342;2023-05-16T10:25:47;5.60;;;1.20;;
75459;SDS011;64039;53.060;9.342;2023-05-16T10:28:14;5.10;;;0.90;;
75459;SDS011;64039;53.060;9.342;2023-05-16T10:30:41;11.80;;;1.48;;
75459;SDS011;64039;53.060;9.342;2023-05-16T10:33:10;9.32;;;1.45;;
75459;SDS011;64039;53.060;9.342;2023-05-16T10:35:36;5.30;;;0.85;;
75459;SDS011;64039;53.060;9.342;2023-05-16T10:38:03;3.22;;;1.13;;
75459;SDS011;64039;53.060;9.342;2023-05-16T10:40:30;5.53;;;1.13;;
75459;SDS011;64039;53.060;9.342;2023-05-16T10:42:58;5.55;;;1.20;;
75459;SDS011;64039;53.060;9.342;2023-05-16T10:45:25;5.88;;;1.17;;
75459;SDS011;64039;53.060;9.342;2023-05-16T10:47:51;7.78;;;1.08;;
75459;SDS011;64039;53.060;9.342;2023-05-16T10:50:33;4.70;;;0.90;;
75459;SDS011;64039;53.060;9.342;2023-05-16T10:53:12;5.22;;;0.90;;
75459;SDS011;64039;53.060;9.342;2023-05-16T10:56:07;3.95;;;0.93;;
75459;SDS011;64039;53.060;9.342;2023-05-16T11:06:26;3.95;;;0.70;;
75459;SDS011;64039;53.060;9.342;2023-05-16T11:11:43;4.13;;;0.90;;
75459;SDS011;64039;53.060;9.342;2023-05-16T11:16:50;2.83;;;1.00;;
75459;SDS011;64039;53.060;9.342;2023-05-16T11:22:05;4.80;;;0.77;;
75459;SDS011;64039;53.060;9.342;2023-05-16T11:24:31;6.25;;;0.85;;
75459;SDS011;64039;53.060;9.342;2023-05-16T11:27:00;4.07;;;1.10;;
75459;SDS011;64039;53.060;9.342;2023-05-16T11:29:27;3.75;;;0.90;;
75459;SDS011;64039;53.060;9.342;2023-05-16T11:31:56;6.05;;;1.05;;
75459;SDS011;64039;53.060;9.342;2023-05-16T11:34:22;3.38;;;0.85;;
75459;SDS011;64039;53.060;9.342;2023-05-16T11:36:48;6.50;;;1.10;;
75459;SDS011;64039;53.060;9.342;2023-05-16T11:39:13;3.03;;;0.60;;
75459;SDS011;64039;53.060;9.342;2023-05-16T11:41:39;4.95;;;0.95;;
75459;SDS011;64039;53.060;9.342;2023-05-16T11:44:05;4.95;;;1.00;;
75459;SDS011;64039;53.060;9.342;2023-05-16T11:46:32;2.92;;;0.57;;
75459;SDS011;64039;53.060;9.342;2023-05-16T11:48:57;6.25;;;0.70;;
75459;SDS011;64039;53.060;9.342;2023-05-16T11:51:23;2.80;;;0.80;;
75459;SDS011;64039;53.060;9.342;2023-05-16T11:53:49;3.90;;;0.90;;
75459;SDS011;64039;53.060;9.342;2023-05-16T11:56:14;4.80;;;1.10;;
75459;SDS011;64039;53.060;9.342;2023-05-16T11:58:40;4.38;;;1.10;;
75459;SDS011;64039;53.060;9.342;2023-05-16T12:01:06;6.47;;;1.00;;
75459;SDS011;64039;53.060;9.342;2023-05-16T12:03:32;5.53;;;1.10;;
75459;SDS011;64039;53.060;9.342;2023-05-16T12:05:59;4.28;;;0.95;;
75459;SDS011;64039;53.060;9.342;2023-05-16T12:08:25;4.03;;;0.90;;
75459;SDS011;64039;53.060;9.342;2023-05-16T12:10:51;3.05;;;1.00;;
75459;SDS011;64039;53.060;9.342;2023-05-16T12:13:18;5.75;;;1.05;;
75459;SDS011;64039;53.060;9.342;2023-05-16T12:15:45;2.38;;;0.77;;
75459;SDS011;64039;53.060;9.342;2023-05-16T12:18:11;4.45;;;1.35;;
75459;SDS011;64039;53.060;9.342;2023-05-16T12:20:37;5.07;;;1.02;;
75459;SDS011;64039;53.060;9.342;2023-05-16T12:23:02;5.10;;;1.00;;
75459;SDS011;64039;53.060;9.342;2023-05-16T12:25:29;4.88;;;1.00;;
75459;SDS011;64039;53.060;9.342;2023-05-16T12:28:01;5.20;;;1.17;;
75459;SDS011;64039;53.060;9.342;2023-05-16T12:30:29;2.38;;;0.75;;
75459;SDS011;64039;53.060;9.342;2023-05-16T12:32:56;5.55;;;1.10;;
75459;SDS011;64039;53.060;9.342;2023-05-16T12:35:22;7.00;;;1.08;;
75459;SDS011;64039;53.060;9.342;2023-05-16T12:37:49;4.05;;;1.10;;
75459;SDS011;64039;53.060;9.342;2023-05-16T12:40:17;3.45;;;0.80;;
75459;SDS011;64039;53.060;9.342;2023-05-16T12:42:44;2.75;;;1.05;;
75459;SDS011;64039;53.060;9.342;2023-05-16T12:45:14;5.97;;;1.25;;
75459;SDS011;64039;53.060;9.342;2023-05-16T12:47:41;2.97;;;0.98;;
75459;SDS011;64039;53.060;9.342;2023-05-16T12:50:10;4.75;;;1.00;;
75459;SDS011;64039;53.060;9.342;2023-05-16T12:52:48;4.60;;;0.85;;
75459;SDS011;64039;53.060;9.342;2023-05-16T12:55:15;3.25;;;1.30;;
75459;SDS011;64039;53.060;9.342;2023-05-16T12:57:42;1.17;;;0.60;;
75459;SDS011;64039;53.060;9.342;2023-05-16T13:00:10;3.50;;;1.10;;
75459;SDS011;64039;53.060;9.342;2023-05-16T13:02:36;2.67;;;0.77;;
75459;SDS011;64039;53.060;9.342;2023-05-16T13:05:02;3.55;;;0.85;;
75459;SDS011;64039;53.060;9.342;2023-05-16T13:07:28;3.50;;;0.90;;
75459;SDS011;64039;53.060;9.342;2023-05-16T13:09:54;6.43;;;0.98;;
75459;SDS011;64039;53.060;9.342;2023-05-16T13:12:20;7.53;;;1.30;;
75459;SDS011;64039;53.060;9.342;2023-05-16T13:14:50;6.10;;;1.00;;
75459;SDS011;64039;53.060;9.342;2023-05-16T13:17:16;7.10;;;0.88;;
75459;SDS011;64039;53.060;9.342;2023-05-16T13:19:42;4.05;;;0.95;;
75459;SDS011;64039;53.060;9.342;2023-05-16T13:22:07;7.15;;;1.10;;
75459;SDS011;64039;53.060;9.342;2023-05-16T13:24:33;2.80;;;0.90;;
75459;SDS011;64039;53.060;9.342;2023-05-16T13:26:58;10.57;;;3.58;;
75459;SDS011;64039;53.060;9.342;2023-05-16T13:29:23;3.45;;;1.05;;
75459;SDS011;64039;53.060;9.342;2023-05-16T13:31:49;4.75;;;1.35;;
75459;SDS011;64039;53.060;9.342;2023-05-16T13:34:14;3.55;;;0.77;;
75459;SDS011;64039;53.060;9.342;2023-05-16T13:36:40;6.45;;;1.13;;
75459;SDS011;64039;53.060;9.342;2023-05-16T13:39:05;11.68;;;4.47;;
75459;SDS011;64039;53.060;9.342;2023-05-16T13:41:31;6.88;;;0.82;;
75459;SDS011;64039;53.060;9.342;2023-05-16T13:43:57;2.47;;;0.70;;
75459;SDS011;64039;53.060;9.342;2023-05-16T13:46:23;4.97;;;1.10;;
75459;SDS011;64039;53.060;9.342;2023-05-16T13:48:48;5.72;;;1.30;;
75459;SDS011;64039;53.060;9.342;2023-05-16T13:51:14;5.55;;;0.98;;
75459;SDS011;64039;53.060;9.342;2023-05-16T13:53:39;9.77;;;1.13;;
75459;SDS011;64039;53.060;9.342;2023-05-16T13:56:05;4.75;;;1.05;;
75459;SDS011;64039;53.060;9.342;2023-05-16T13:58:30;4.97;;;0.93;;
75459;SDS011;64039;53.060;9.342;2023-05-16T14:00:56;5.60;;;1.02;;
75459;SDS011;64039;53.060;9.342;2023-05-16T14:03:21;4.53;;;0.88;;
75459;SDS011;64039;53.060;9.342;2023-05-16T14:05:47;9.48;;;1.35;;
75459;SDS011;64039;53.060;9.342;2023-05-16T14:08:13;4.88;;;0.93;;
75459;SDS011;64039;53.060;9.342;2023-05-16T14:10:39;4.03;;;0.93;;
75459;SDS011;64039;53.060;9.342;2023-05-16T14:13:04;7.63;;;1.35;;
75459;SDS011;64039;53.060;9.342;2023-05-16T14:15:30;4.18;;;0.77;;
75459;SDS011;64039;53.060;9.342;2023-05-16T14:17:55;7.72;;;1.05;;
75459;SDS011;64039;53.060;9.342;2023-05-16T14:20:20;9.60;;;1.10;;
75459;SDS011;64039;53.060;9.342;2023-05-16T14:22:47;4.82;;;1.10;;
75459;SDS011;64039;53.060;9.342;2023-05-16T14:25:12;8.13;;;1.42;;
75459;SDS011;64039;53.060;9.342;2023-05-16T14:27:38;8.05;;;1.20;;
75459;SDS011;64039;53.060;9.342;2023-05-16T14:30:03;9.10;;;1.70;;
75459;SDS011;64039;53.060;9.342;2023-05-16T14:32:30;4.10;;;0.80;;
75459;SDS011;64039;53.060;9.342;2023-05-16T14:34:55;8.52;;;1.58;;
75459;SDS011;64039;53.060;9.342;2023-05-16T14:37:21;6.05;;;1.20;;
75459;SDS011;64039;53.060;9.342;2023-05-16T14:39:46;9.75;;;1.40;;
75459;SDS011;64039;53.060;9.342;2023-05-16T14:42:13;11.65;;;1.35;;
75459;SDS011;64039;53.060;9.342;2023-05-16T14:44:39;10.20;;;1.02;;
75459;SDS011;64039;53.060;9.342;2023-05-16T14:47:04;5.28;;;0.80;;
75459;SDS011;64039;53.060;9.342;2023-05-16T14:49:30;6.75;;;1.42;;
75459;SDS011;64039;53.060;9.342;2023-05-16T14:51:56;6.60;;;1.20;;
75459;SDS011;64039;53.060;9.342;2023-05-16T14:54:21;5.25;;;0.98;;
75459;SDS011;64039;53.060;9.342;2023-05-16T14:56:47;6.18;;;1.20;;
75459;SDS011;64039;53.060;9.342;2023-05-16T14:59:12;5.50;;;1.15;;
75459;SDS011;64039;53.060;9.342;2023-05-16T15:01:38;9.32;;;1.52;;
75459;SDS011;64039;53.060;9.342;2023-05-16T15:04:04;7.18;;;1.20;;
75459;SDS011;64039;53.060;9.342;2023-05-16T15:06:29;10.60;;;1.33;;